createdAt,value
2023-05-06T00:01:58.173Z,4.81
2023-05-06T00:04:26.004Z,4.88
2023-05-06T00:06:54.307Z,5.01
2023-05-06T00:09:24.125Z,4.98
2023-05-06T00:11:52.248Z,4.87
2023-05-06T00:14:20.095Z,5.04
2023-05-06T00:16:47.855Z,5.71
2023-05-06T00:19:15.721Z,5.60
2023-05-06T00:21:43.421Z,5.81
2023-05-06T00:24:11.536Z,5.32
2023-05-06T00:26:39.409Z,5.01
2023-05-06T00:29:07.589Z,5.03
2023-05-06T00:31:35.496Z,5.16
2023-05-06T00:34:03.381Z,5.10
2023-05-06T00:36:31.836Z,5.10
2023-05-06T00:38:59.534Z,5.06
2023-05-06T00:41:32.811Z,5.05
2023-05-06T00:44:00.814Z,4.81
2023-05-06T00:46:28.924Z,4.76
2023-05-06T00:48:57.528Z,4.94
2023-05-06T00:51:26.194Z,4.92
2023-05-06T00:53:54.372Z,4.73
2023-05-06T00:56:22.504Z,4.29
2023-05-06T00:58:50.712Z,4.11
2023-05-06T01:01:18.625Z,3.82
2023-05-06T01:03:47.138Z,3.70
2023-05-06T01:06:18.120Z,3.52
2023-05-06T01:09:09.141Z,3.48
2023-05-06T01:11:46.615Z,3.02
2023-05-06T01:14:23.584Z,3.34
2023-05-06T01:16:58.413Z,3.41
2023-05-06T01:19:49.266Z,3.71
2023-05-06T01:22:18.450Z,3.34
2023-05-06T01:24:47.228Z,3.17
2023-05-06T01:27:16.817Z,3.34
2023-05-06T01:29:48.426Z,3.48
2023-05-06T01:32:28.352Z,3.62
2023-05-06T01:35:00.889Z,3.41
2023-05-06T01:37:45.445Z,3.39
2023-05-06T01:40:16.562Z,3.58
2023-05-06T01:42:51.437Z,3.39
2023-05-06T01:45:22.439Z,3.15
2023-05-06T01:47:51.571Z,3.17
2023-05-06T01:50:19.524Z,3.39
2023-05-06T01:53:01.114Z,3.31
2023-05-06T01:55:29.459Z,3.47
2023-05-06T01:57:57.160Z,2.96
2023-05-06T02:00:26.626Z,3.00
2023-05-06T02:02:54.679Z,2.93
2023-05-06T02:05:22.624Z,3.13
2023-05-06T02:07:55.395Z,2.94
2023-05-06T02:10:23.261Z,3.08
2023-05-06T02:12:58.134Z,2.88
2023-05-06T02:15:26.224Z,3.15
2023-05-06T02:17:54.062Z,3.13
2023-05-06T02:20:21.957Z,3.06
2023-05-06T02:22:49.634Z,2.93
2023-05-06T02:25:17.449Z,3.11
2023-05-06T02:27:46.464Z,2.92
2023-05-06T02:30:14.783Z,3.11
2023-05-06T02:32:42.619Z,3.26
2023-05-06T02:35:10.921Z,3.09
2023-05-06T02:37:38.900Z,3.31
2023-05-06T02:40:07.201Z,3.67
2023-05-06T02:42:36.060Z,3.32
2023-05-06T02:45:04.056Z,3.36
2023-05-06T02:47:33.525Z,3.61
2023-05-06T02:50:01.967Z,3.55
2023-05-06T02:52:29.700Z,3.50
2023-05-06T02:54:57.361Z,3.64
2023-05-06T02:57:25.228Z,3.53
2023-05-06T02:59:53.003Z,3.51
2023-05-06T03:02:20.830Z,3.52
2023-05-06T03:04:48.575Z,3.37
2023-05-06T03:07:16.226Z,3.17
2023-05-06T03:09:44.846Z,3.60
2023-05-06T03:12:13.018Z,3.38
2023-05-06T03:14:41.526Z,3.49
2023-05-06T03:17:09.184Z,3.16
2023-05-06T03:19:38.232Z,3.24
2023-05-06T03:22:08.051Z,3.40
2023-05-06T03:24:39.676Z,3.32
2023-05-06T03:27:08.369Z,3.10
2023-05-06T03:29:36.328Z,3.28
2023-05-06T03:32:05.969Z,3.19
2023-05-06T03:34:40.367Z,3.33
2023-05-06T03:37:10.189Z,3.44
2023-05-06T03:39:39.950Z,3.09
2023-05-06T03:42:09.445Z,3.22
2023-05-06T03:44:38.316Z,3.34
2023-05-06T03:47:06.287Z,3.05
2023-05-06T03:49:36.216Z,3.12
2023-05-06T03:52:05.441Z,2.98
2023-05-06T03:54:33.566Z,3.17
2023-05-06T03:57:02.617Z,3.20
2023-05-06T03:59:31.846Z,3.36
2023-05-06T04:02:00.826Z,3.00
2023-05-06T04:04:28.684Z,2.97
2023-05-06T04:06:57.246Z,2.95
2023-05-06T04:09:25.356Z,2.96
2023-05-06T04:11:53.763Z,3.06
2023-05-06T04:14:22.280Z,3.39
2023-05-06T04:16:50.011Z,3.34
2023-05-06T04:19:18.541Z,3.17
2023-05-06T04:21:47.514Z,3.13
2023-05-06T04:24:17.015Z,3.11
2023-05-06T04:26:45.014Z,2.98
2023-05-06T04:29:13.280Z,2.80
2023-05-06T04:31:54.559Z,2.98
2023-05-06T04:34:25.361Z,2.87
2023-05-06T04:36:54.284Z,2.88
2023-05-06T04:39:32.363Z,2.83
2023-05-06T04:42:00.454Z,2.60
2023-05-06T04:44:36.615Z,2.64
2023-05-06T04:47:07.414Z,2.75
2023-05-06T04:49:35.282Z,2.49
2023-05-06T04:52:04.960Z,2.66
2023-05-06T04:54:34.264Z,2.72
2023-05-06T04:57:03.248Z,2.56
2023-05-06T04:59:32.330Z,2.69
2023-05-06T05:02:02.633Z,2.46
2023-05-06T05:04:31.236Z,2.31
2023-05-06T05:06:59.075Z,2.28
2023-05-06T05:09:27.145Z,2.18
2023-05-06T05:11:54.787Z,2.28
2023-05-06T05:14:22.713Z,2.35
2023-05-06T05:16:51.211Z,2.42
2023-05-06T05:19:19.248Z,2.37
2023-05-06T05:21:47.650Z,2.18
2023-05-06T05:24:16.775Z,2.07
2023-05-06T05:26:44.428Z,2.06
2023-05-06T05:29:12.226Z,1.83
2023-05-06T05:31:40.287Z,1.91
2023-05-06T05:34:08.368Z,1.88
2023-05-06T05:36:36.139Z,2.05
2023-05-06T05:39:07.343Z,1.91
2023-05-06T05:41:38.928Z,2.02
2023-05-06T05:44:06.839Z,1.86
2023-05-06T05:46:35.329Z,1.90
2023-05-06T05:49:05.096Z,1.84
2023-05-06T05:51:32.985Z,1.74
2023-05-06T05:54:03.640Z,1.93
2023-05-06T05:56:32.067Z,1.85
2023-05-06T05:59:00.877Z,1.90
2023-05-06T06:01:29.080Z,1.83
2023-05-06T06:03:58.072Z,1.79
2023-05-06T06:06:27.671Z,1.89
2023-05-06T06:08:56.104Z,1.84
2023-05-06T06:11:25.594Z,1.89
2023-05-06T06:13:53.689Z,1.84
2023-05-06T06:16:22.576Z,1.79
2023-05-06T06:18:50.675Z,1.93
2023-05-06T06:21:19.188Z,1.82
2023-05-06T06:23:47.731Z,1.94
2023-05-06T06:26:16.174Z,1.86
2023-05-06T06:28:44.942Z,1.96
2023-05-06T06:31:12.960Z,1.99
2023-05-06T06:33:40.789Z,2.10
2023-05-06T06:36:08.903Z,1.67
2023-05-06T06:38:36.878Z,2.10
2023-05-06T06:41:05.477Z,1.73
2023-05-06T06:43:33.393Z,1.57
2023-05-06T06:46:02.832Z,1.48
2023-05-06T06:48:30.543Z,1.30
2023-05-06T06:50:58.238Z,1.32
2023-05-06T06:53:26.035Z,1.49
2023-05-06T06:55:53.821Z,1.38
2023-05-06T06:58:21.560Z,1.34
2023-05-06T07:00:49.289Z,1.36
2023-05-06T07:03:19.607Z,1.24
2023-05-06T07:05:48.120Z,1.16
2023-05-06T07:08:17.263Z,1.29
2023-05-06T07:10:45.026Z,1.26
2023-05-06T07:13:12.692Z,1.24
2023-05-06T07:15:40.789Z,1.14
2023-05-06T07:18:09.331Z,1.09
2023-05-06T07:20:36.933Z,1.14
2023-05-06T07:23:04.597Z,1.09
2023-05-06T07:25:32.454Z,1.13
2023-05-06T07:28:00.727Z,1.17
2023-05-06T07:30:28.474Z,1.26
2023-05-06T07:32:56.637Z,1.01
2023-05-06T07:35:24.434Z,1.01
2023-05-06T07:37:52.540Z,1.28
2023-05-06T07:40:20.310Z,1.23
2023-05-06T07:42:48.009Z,1.32
2023-05-06T07:45:15.776Z,1.22
2023-05-06T07:47:43.587Z,1.40
2023-05-06T07:50:11.503Z,1.49
2023-05-06T07:52:39.211Z,1.34
2023-05-06T07:55:09.770Z,1.51
2023-05-06T07:57:37.733Z,1.57
2023-05-06T08:00:06.200Z,1.65
2023-05-06T08:02:44.560Z,1.58
2023-05-06T08:05:13.203Z,1.59
2023-05-06T08:07:42.413Z,1.45
2023-05-06T08:10:11.102Z,1.57
2023-05-06T08:12:38.915Z,1.60
2023-05-06T08:15:07.313Z,1.68
2023-05-06T08:17:35.072Z,1.55
2023-05-06T08:20:03.089Z,1.43
2023-05-06T08:22:31.091Z,1.26
2023-05-06T08:24:58.912Z,1.61
2023-05-06T08:27:26.747Z,1.60
2023-05-06T08:29:54.447Z,1.54
2023-05-06T08:32:22.232Z,1.55
2023-05-06T08:34:49.948Z,1.54
2023-05-06T08:37:17.639Z,1.42
2023-05-06T08:39:45.844Z,1.68
2023-05-06T08:42:13.717Z,1.38
2023-05-06T08:44:42.898Z,1.48
2023-05-06T08:47:11.285Z,1.46
2023-05-06T08:49:39.290Z,1.51
2023-05-06T08:52:07.261Z,1.71
2023-05-06T08:54:36.567Z,1.58
2023-05-06T08:57:06.541Z,1.76
2023-05-06T08:59:34.613Z,1.70
2023-05-06T09:02:03.975Z,1.68
2023-05-06T09:04:32.200Z,1.59
2023-05-06T09:07:00.313Z,1.84
2023-05-06T09:09:28.972Z,1.57
2023-05-06T09:11:57.881Z,1.83
2023-05-06T09:14:25.739Z,1.93
2023-05-06T09:16:53.844Z,2.00
2023-05-06T09:19:23.395Z,1.69
2023-05-06T09:21:52.368Z,1.88
2023-05-06T09:24:20.783Z,1.92
2023-05-06T09:26:48.827Z,2.09
2023-05-06T09:29:16.514Z,2.07
2023-05-06T09:31:46.137Z,2.24
2023-05-06T09:34:15.553Z,2.20
2023-05-06T09:36:43.245Z,2.06
2023-05-06T09:39:11.214Z,2.50
2023-05-06T09:41:39.094Z,2.42
2023-05-06T09:44:06.865Z,2.28
2023-05-06T09:46:34.836Z,2.27
2023-05-06T09:49:06.179Z,2.39
2023-05-06T09:51:34.037Z,2.40
2023-05-06T09:54:02.661Z,2.48
2023-05-06T09:56:34.491Z,2.17
2023-05-06T09:59:04.368Z,2.14
2023-05-06T10:01:37.289Z,2.06
2023-05-06T10:04:09.833Z,2.07
2023-05-06T10:06:41.089Z,1.67
2023-05-06T10:09:10.536Z,1.95
2023-05-06T10:11:38.720Z,1.60
2023-05-06T10:14:07.867Z,1.52
2023-05-06T10:16:37.708Z,1.46
2023-05-06T10:19:08.124Z,1.34
2023-05-06T10:21:42.727Z,1.33
2023-05-06T10:24:16.340Z,1.40
2023-05-06T10:26:48.761Z,1.45
2023-05-06T10:29:17.337Z,1.48
2023-05-06T10:31:55.261Z,1.53
2023-05-06T10:34:25.232Z,1.81
2023-05-06T10:36:57.969Z,1.54
2023-05-06T10:39:30.307Z,1.49
2023-05-06T10:41:58.475Z,1.47
2023-05-06T10:44:59.119Z,1.55
2023-05-06T10:47:29.987Z,1.36
2023-05-06T10:50:27.749Z,1.52
2023-05-06T10:52:57.755Z,1.49
2023-05-06T10:55:36.614Z,1.37
2023-05-06T10:58:15.253Z,1.28
2023-05-06T11:00:52.897Z,1.36
2023-05-06T11:03:24.247Z,1.19
2023-05-06T11:05:52.908Z,1.37
2023-05-06T11:08:26.012Z,1.36
2023-05-06T11:10:54.840Z,1.25
2023-05-06T11:13:28.352Z,1.34
2023-05-06T11:15:58.044Z,1.60
2023-05-06T11:18:29.337Z,1.60
2023-05-06T11:21:03.182Z,1.52
2023-05-06T11:23:43.350Z,1.56
2023-05-06T11:26:12.202Z,1.63
2023-05-06T11:28:43.146Z,1.52
2023-05-06T11:31:12.559Z,1.49
2023-05-06T11:33:51.238Z,1.53
2023-05-06T11:36:20.782Z,1.27
2023-05-06T11:38:51.519Z,1.43
2023-05-06T11:41:21.562Z,1.18
2023-05-06T11:43:51.828Z,1.19
2023-05-06T11:46:21.285Z,1.37
2023-05-06T11:48:50.484Z,1.26
2023-05-06T11:51:23.435Z,1.28
2023-05-06T11:53:51.968Z,1.26
2023-05-06T11:56:19.627Z,1.32
2023-05-06T11:58:47.470Z,1.13
2023-05-06T12:01:15.247Z,1.35
2023-05-06T12:03:43.202Z,1.37
2023-05-06T12:06:12.830Z,1.29
2023-05-06T12:08:41.492Z,1.32
2023-05-06T12:11:10.088Z,1.43
2023-05-06T12:13:39.012Z,1.37
2023-05-06T12:16:08.432Z,1.20
2023-05-06T12:18:36.631Z,1.01
2023-05-06T12:21:04.728Z,1.15
2023-05-06T12:23:32.643Z,1.25
2023-05-06T12:26:06.243Z,1.35
2023-05-06T12:28:35.960Z,1.30
2023-05-06T12:31:24.235Z,1.73
2023-05-06T12:33:52.267Z,1.85
2023-05-06T12:36:20.920Z,1.78
2023-05-06T12:38:57.275Z,1.90
2023-05-06T12:41:36.317Z,1.91
2023-05-06T12:44:24.370Z,2.14
2023-05-06T12:46:55.475Z,1.83
2023-05-06T12:49:23.260Z,1.82
2023-05-06T12:52:11.208Z,1.91
2023-05-06T12:54:39.065Z,1.91
2023-05-06T12:57:07.592Z,2.17
2023-05-06T12:59:37.378Z,2.39
2023-05-06T13:02:06.309Z,2.47
2023-05-06T13:04:34.320Z,2.13
2023-05-06T13:07:02.503Z,2.24
2023-05-06T13:09:31.911Z,2.22
2023-05-06T13:11:59.840Z,1.84
2023-05-06T13:14:27.714Z,2.10
2023-05-06T13:16:56.071Z,2.08
2023-05-06T13:19:32.456Z,2.21
2023-05-06T13:22:01.816Z,2.01
2023-05-06T13:24:30.988Z,2.02
2023-05-06T13:27:02.302Z,2.23
2023-05-06T13:29:30.118Z,2.27
2023-05-06T13:31:58.406Z,2.33
2023-05-06T13:34:26.156Z,1.97
2023-05-06T13:36:54.873Z,2.13
2023-05-06T13:39:22.986Z,2.14
2023-05-06T13:41:51.210Z,1.99
2023-05-06T13:44:19.733Z,2.15
2023-05-06T13:46:48.283Z,2.19
2023-05-06T13:49:16.300Z,2.02
2023-05-06T13:51:43.962Z,1.91
2023-05-06T13:54:11.729Z,2.46
2023-05-06T13:56:39.502Z,2.33
2023-05-06T13:59:08.700Z,2.48
2023-05-06T14:01:37.092Z,2.19
2023-05-06T14:04:05.481Z,2.55
2023-05-06T14:06:33.350Z,2.58
2023-05-06T14:09:01.274Z,2.66
2023-05-06T14:11:28.946Z,2.39
2023-05-06T14:13:57.453Z,2.12
2023-05-06T14:16:25.480Z,2.16
2023-05-06T14:18:53.620Z,1.94
2023-05-06T14:21:21.926Z,2.11
2023-05-06T14:23:49.584Z,2.70
2023-05-06T14:26:17.350Z,2.70
2023-05-06T14:28:45.100Z,3.11
2023-05-06T14:31:12.991Z,2.94
2023-05-06T14:33:40.778Z,3.23
2023-05-06T14:36:08.580Z,3.41
2023-05-06T14:38:36.370Z,3.63
2023-05-06T14:41:04.123Z,3.28
2023-05-06T14:43:32.279Z,3.80
2023-05-06T14:46:00.017Z,3.53
2023-05-06T14:48:32.116Z,3.32
2023-05-06T14:51:00.804Z,3.41
2023-05-06T14:53:28.530Z,3.06
2023-05-06T14:55:56.610Z,2.91
2023-05-06T14:58:24.298Z,3.01
2023-05-06T15:00:52.083Z,2.73
2023-05-06T15:03:19.863Z,2.71
2023-05-06T15:05:47.662Z,2.62
2023-05-06T15:08:15.414Z,2.71
2023-05-06T15:10:43.128Z,2.93
2023-05-06T15:13:10.970Z,3.12
2023-05-06T15:15:39.725Z,2.75
2023-05-06T15:18:07.724Z,3.36
2023-05-06T15:20:36.527Z,3.29
2023-05-06T15:23:04.183Z,2.78
2023-05-06T15:25:36.314Z,2.49
2023-05-06T15:28:05.594Z,2.36
2023-05-06T15:30:33.339Z,2.39
2023-05-06T15:33:02.985Z,2.65
2023-05-06T15:35:34.802Z,2.54
2023-05-06T15:38:04.483Z,2.18
2023-05-06T15:40:32.418Z,2.05
2023-05-06T15:43:00.293Z,2.02
2023-05-06T15:45:28.445Z,2.24
2023-05-06T15:47:56.317Z,1.82
2023-05-06T15:50:32.692Z,2.29
2023-05-06T15:53:02.875Z,2.48
2023-05-06T15:55:41.607Z,5.61
2023-05-06T15:58:13.056Z,4.33
2023-05-06T16:00:40.843Z,3.41
2023-05-06T16:03:11.712Z,3.25
2023-05-06T16:05:40.498Z,4.24
2023-05-06T16:08:08.302Z,2.93
2023-05-06T16:10:35.994Z,2.78
2023-05-06T16:13:03.885Z,2.34
2023-05-06T16:15:32.257Z,2.34
2023-05-06T16:17:59.975Z,2.38
2023-05-06T16:20:27.780Z,2.18
2023-05-06T16:22:55.927Z,2.19
2023-05-06T16:25:24.361Z,2.10
2023-05-06T16:27:52.420Z,1.92
2023-05-06T16:30:20.544Z,1.93
2023-05-06T16:32:48.672Z,2.14
2023-05-06T16:35:19.602Z,1.91
2023-05-06T16:37:47.283Z,1.91
2023-05-06T16:40:17.803Z,1.85
2023-05-06T16:42:45.466Z,2.01
2023-05-06T16:45:13.236Z,2.07
2023-05-06T16:47:41.384Z,1.89
2023-05-06T16:50:09.694Z,1.79
2023-05-06T16:52:37.607Z,2.03
2023-05-06T16:55:06.390Z,1.93
2023-05-06T16:57:34.576Z,1.82
2023-05-06T17:00:02.781Z,1.95
2023-05-06T17:02:30.756Z,1.90
2023-05-06T17:04:58.522Z,2.40
2023-05-06T17:07:26.229Z,2.82
2023-05-06T17:09:53.833Z,2.61
2023-05-06T17:12:23.850Z,3.18
2023-05-06T17:14:51.570Z,3.35
2023-05-06T17:17:21.413Z,3.13
2023-05-06T17:19:49.528Z,3.04
2023-05-06T17:22:17.148Z,3.04
2023-05-06T17:24:44.920Z,3.03
2023-05-06T17:27:12.635Z,2.87
2023-05-06T17:29:40.675Z,3.27
2023-05-06T17:32:08.459Z,2.95
2023-05-06T17:34:36.702Z,3.45
2023-05-06T17:37:05.009Z,3.14
2023-05-06T17:39:33.225Z,2.82
2023-05-06T17:42:01.945Z,2.95
2023-05-06T17:44:30.013Z,2.54
2023-05-06T17:46:58.103Z,2.68
2023-05-06T17:49:25.933Z,2.52
2023-05-06T17:51:53.865Z,2.44
2023-05-06T17:54:21.794Z,2.59
2023-05-06T17:56:52.790Z,3.14
2023-05-06T17:59:21.253Z,3.07
2023-05-06T18:01:49.045Z,2.55
2023-05-06T18:04:16.984Z,2.41
2023-05-06T18:06:47.444Z,2.47
2023-05-06T18:09:15.078Z,2.30
2023-05-06T18:11:44.424Z,2.45
2023-05-06T18:14:12.456Z,2.53
2023-05-06T18:16:40.425Z,2.60
2023-05-06T18:19:08.128Z,2.61
2023-05-06T18:21:36.093Z,2.75
2023-05-06T18:24:15.453Z,3.06
2023-05-06T18:26:46.005Z,3.17
2023-05-06T18:29:14.366Z,3.83
2023-05-06T18:31:42.638Z,4.92
2023-05-06T18:34:10.537Z,5.65
2023-05-06T18:36:38.415Z,5.17
2023-05-06T18:39:07.158Z,4.60
2023-05-06T18:41:34.807Z,3.69
2023-05-06T18:44:04.429Z,3.55
2023-05-06T18:46:32.382Z,4.41
2023-05-06T18:49:01.132Z,4.26
2023-05-06T18:51:28.935Z,4.56
2023-05-06T18:53:56.599Z,4.31
2023-05-06T18:56:24.644Z,3.85
2023-05-06T18:58:52.882Z,3.74
2023-05-06T19:01:20.675Z,4.00
2023-05-06T19:03:49.594Z,4.24
2023-05-06T19:06:17.645Z,4.53
2023-05-06T19:08:45.692Z,4.58
2023-05-06T19:11:21.683Z,4.95
2023-05-06T19:13:51.279Z,4.86
2023-05-06T19:16:19.002Z,4.93
2023-05-06T19:18:47.996Z,5.24
2023-05-06T19:21:16.146Z,5.07
2023-05-06T19:23:44.000Z,5.61
2023-05-06T19:26:12.206Z,5.09
2023-05-06T19:28:43.116Z,4.84
2023-05-06T19:31:11.882Z,4.51
2023-05-06T19:33:40.262Z,4.47
2023-05-06T19:36:09.280Z,4.62
2023-05-06T19:38:36.996Z,4.58
2023-05-06T19:41:07.190Z,6.16
2023-05-06T19:43:40.587Z,6.52
2023-05-06T19:46:09.321Z,5.36
2023-05-06T19:48:38.790Z,4.79
2023-05-06T19:51:07.318Z,4.84
2023-05-06T19:53:35.942Z,5.63
2023-05-06T19:56:14.204Z,5.28
2023-05-06T19:58:42.383Z,5.47
2023-05-06T20:01:10.113Z,5.90
2023-05-06T20:03:38.008Z,6.23
2023-05-06T20:06:06.580Z,7.26
2023-05-06T20:08:35.614Z,7.99
2023-05-06T20:11:03.378Z,6.46
2023-05-06T20:13:31.352Z,6.35
2023-05-06T20:15:59.118Z,6.31
2023-05-06T20:18:27.285Z,7.25
2023-05-06T20:20:54.936Z,10.42
2023-05-06T20:23:22.562Z,19.76
2023-05-06T20:25:50.280Z,8.92
2023-05-06T20:28:18.598Z,6.52
2023-05-06T20:30:47.638Z,6.79
2023-05-06T20:33:15.672Z,7.16
2023-05-06T20:35:43.450Z,7.44
2023-05-06T20:38:11.585Z,6.96
2023-05-06T20:40:39.267Z,7.54
2023-05-06T20:43:06.947Z,7.21
2023-05-06T20:45:34.712Z,6.62
2023-05-06T20:48:02.483Z,7.19
2023-05-06T20:50:31.024Z,6.84
2023-05-06T20:53:00.438Z,5.94
2023-05-06T20:55:28.324Z,6.00
2023-05-06T20:57:56.126Z,6.47
2023-05-06T21:00:24.034Z,6.53
2023-05-06T21:02:51.897Z,6.18
2023-05-06T21:05:22.928Z,6.04
2023-05-06T21:07:50.644Z,5.73
2023-05-06T21:10:18.657Z,5.69
2023-05-06T21:12:50.305Z,5.73
2023-05-06T21:15:18.381Z,5.65
2023-05-06T21:17:46.422Z,5.68
2023-05-06T21:20:14.414Z,5.79
2023-05-06T21:22:42.341Z,5.66
2023-05-06T21:25:10.368Z,5.84
2023-05-06T21:27:38.155Z,5.72
2023-05-06T21:30:06.521Z,5.49
2023-05-06T21:32:34.354Z,5.66
2023-05-06T21:35:03.351Z,5.88
2023-05-06T21:37:31.290Z,5.36
2023-05-06T21:40:02.896Z,5.92
2023-05-06T21:42:32.034Z,5.76
2023-05-06T21:45:01.023Z,6.03
2023-05-06T21:47:29.141Z,5.85
2023-05-06T21:49:57.152Z,5.89
2023-05-06T21:52:25.312Z,6.41
2023-05-06T21:54:52.980Z,6.96
2023-05-06T21:57:20.615Z,6.37
2023-05-06T21:59:48.371Z,6.76
2023-05-06T22:02:16.192Z,6.70
2023-05-06T22:04:43.987Z,6.35
2023-05-06T22:07:11.932Z,6.68
2023-05-06T22:09:39.675Z,6.76
2023-05-06T22:12:08.710Z,7.13
2023-05-06T22:14:41.125Z,6.77
2023-05-06T22:17:10.882Z,6.98
2023-05-06T22:19:38.873Z,7.25
2023-05-06T22:22:07.327Z,7.14
2023-05-06T22:24:35.527Z,7.18
2023-05-06T22:27:03.304Z,7.19
2023-05-06T22:29:31.332Z,7.20
2023-05-06T22:31:59.448Z,7.24
2023-05-06T22:34:27.398Z,6.76
2023-05-06T22:36:55.517Z,6.80
2023-05-06T22:39:24.287Z,6.98
2023-05-06T22:41:52.501Z,6.88
2023-05-06T22:44:21.089Z,6.21
2023-05-06T22:46:48.977Z,6.78
2023-05-06T22:49:19.484Z,6.85
2023-05-06T22:51:47.578Z,6.76
2023-05-06T22:54:15.498Z,6.42
2023-05-06T22:56:43.241Z,6.88
2023-05-06T22:59:10.957Z,6.66
2023-05-06T23:01:38.976Z,6.80
2023-05-06T23:04:07.323Z,6.96
2023-05-06T23:06:35.050Z,6.92
2023-05-06T23:09:02.965Z,7.12
2023-05-06T23:11:30.841Z,7.08
2023-05-06T23:13:58.519Z,7.30
2023-05-06T23:16:26.553Z,7.12
2023-05-06T23:18:54.953Z,7.31
2023-05-06T23:21:22.784Z,7.56
2023-05-06T23:23:50.691Z,7.18
2023-05-06T23:26:18.437Z,7.34
2023-05-06T23:28:46.219Z,6.99
2023-05-06T23:31:15.017Z,7.04
2023-05-06T23:33:42.741Z,6.49
2023-05-06T23:36:10.484Z,6.40
2023-05-06T23:38:38.155Z,6.60
2023-05-06T23:41:06.493Z,7.03
2023-05-06T23:43:34.238Z,6.96
2023-05-06T23:46:02.445Z,6.76
2023-05-06T23:48:30.132Z,6.69
2023-05-06T23:50:57.953Z,6.81
2023-05-06T23:53:26.196Z,6.47
2023-05-06T23:55:54.670Z,6.09
2023-05-06T23:58:22.375Z,6.20
